Strona główna
METAR-TAF:

METAR-TAF

Lotnisko :

Longyearbyen, Norwegia

Port lotniczy Svalbard

Szerokość geograficzna: 78-15N, Długość geograficzna: 015-28E, wysokość: 2 m

Aktualna obserwacja pogody

Raport powstał 17 minut temu, godzina 11:20 UTC
Wiatr 14 kt od wschodnio-północny wschód
Temperatura 0°C
Wilgotność 74%
Ciśnienie 1010 hPa
Widzialność 10 km lub więcej
Mało chmury na wysokości 2000 ft
Rozproszone chmury na wysokości 3000 ft
Przerywane chmury na wysokości 4500 ft
słaby śnieg

METAR: ENSB 181120Z 06014KT 9999 -SN FEW020 SCT030 BKN045 M00/M04 Q1010 RMK WIND 1400FT 08013KT

czas: 12:37 (11:37 UTC)

Prognoza

Prognoza ważna od 18 godzina 06 UTC do 19 godzina 06 UTC
Wiatr 15 kt od wschodnio-południowy wschód
Widzialność 10 km lub więcej
Mało chmury na wysokości 1500 ft
Przerywane chmury na wysokości 3000 ft
Przejściowo
od 18 godzina 06 UTC do 18 godzina 18 UTC
Wiatr 25 kt od wschód

TAF: ENSB 1806/1906 12015KT 9999 FEW015 BKN030 TEMPO 1806/1818 10025KT

Obserwacja i prognoza pogody dla ponad 4000 lotnisk (raport METAR i TAF).

Dostępne stacje oznaczono żółtymi i czerwonymi punktami na mapie.

Najedź kursorem aby zobaczyć nazwę stacji.

Kliknij aby zobaczyć obserwacje i prognozy pogody.

Aby zmienić mapę: kliknij na zielony przycisk z czarnym krzyżykiem, aby powiększyć; na zielony przycisk z myślnikiem, aby pomniejszyć; na zielone strzałki, aby przejść do map sąsiednich.


METAR-TAF: